NWS Home NWS Lubbock West Texas Mesonet                      Daily Summary For 05/05/2021

Latest   N   C   S   Daily Sum   3hrΔ   24hrΔ   Soil Data 
Site Map   24hr Precip   72hr Precip   Google Plot


Station Time of Last Max Temp Min Temp Max/Min Dew Pt. Max/Min RH 10m Avg Wind 2m Avg Wind Peak Gust @ 33ft (mph) Potential Evapotranspiration
mm/day or in/day
Rain Sum Solar Rad
MJ/m^2
% Clear Day Red Flag
Abernathy 5ENE 11:59 PM 81 45 49 /41 90 / 28 12.7  (E) 9.2 29.6 mph 201° @ 0457 PM 3.6 or 0.14 0.00 29.9 220.5 0
Adrian 6WSW 11:59 PM 81 42 46 /33 92 / 19 14.1  (S) 11.1 35.8 mph 35° @ 1000 PM 3.8 or 0.15 0.00 30.6 235.5 0
Aiken 3WSW 11:59 PM 81 43 50 /41 94 / 31 12.5  (SE) 8.9 28 mph 168° @ 0223 PM 3.6 or 0.14 0.00 29.9 222.4 0
Amarillo 15NNW 11:59 PM 84 44 49 /35 77 / 24 12.4  (SE) 9.1 36.2 mph 60° @ 1126 PM 3.8 or 0.15 0.00 27.6 215.2 0
Amarillo 7SSE 11:59 PM 82 39 48 /34 100 / 27 12.4  (SE) 8.9 31 mph 195° @ 0110 PM 3.6 or 0.14 0.00 25.9 199.3 0
Amarillo 9NNE 11:59 PM 82 44 49 /36 82 / 29 13.3  (SE) 10.8 30.8 mph 58° @ 1154 PM 3.6 or 0.14 0.00 27.3 212 0
Amherst 1NE 11:59 PM 85 43 48 /40 91 / 22 12.9  (SE) 9.3 34 mph 175° @ 0203 PM 4.1 or 0.16 0.00 29.6 218.7 0
Andrews 2E 11:59 PM 84 51 50 /38 89 / 20 9.6  (SE) 5.7 29.6 mph 149° @ 0128 PM 3.6 or 0.14 0.00 28.1 196.9 0
Anton 6SSW 11:55 PM 83 43 48 /37 87 / 26 13.3  (S) 10.2 31.6 mph 161° @ 0635 PM 4.1 or 0.16 0.00 29.4 215.5 0
Aspermont 3NE 11:59 PM 78 45 54 /45 99 / 35 6.7  (SE) 3.3 23 mph 149° @ 0221 PM 2.5 or 0.1 0.00 30.1 219 0
Big Bend NP - Castolon 11:59 PM 96 64 48 /34 48 / 12 5.6  (W) 4.4 16.9 mph 160° @ 1232 PM 3.6 or 0.14 0.00 29.7 189.5 0
Big Bend NP - Persimmon Gap 11:59 PM 88 62 50 /34 56 / 15 12.4  (N) 10.4 28.2 mph 19° @ 1151 PM 5.1 or 0.2 0.00 28.3 182.7 0
Big Lake 1WNW 11:59 PM 85 52 50 /39 88 / 20 6.7  (E) 5 18.8 mph 160° @ 0209 PM 3.3 or 0.13 0.00 30.7 207.8 0
Bootleg 11WNW 11:59 PM 84 43 45 /31 96 / 15 13.8  (S) 10.2 31.2 mph 12° @ 1107 PM 4.3 or 0.17 0.00 27 204.8 0
Borger 7E 11:59 PM 79 45 54 /35 76 / 33 14.7  (SE) 11.4 36.2 mph 60° @ 1012 PM 3.6 or 0.14 0.00 27.4 215.9 0
Boys Ranch 1WSW 11:59 PM 85 43 49 /33 85 / 16 9.2  (E) 7.2 35.4 mph 32° @ 0939 PM 3 or 0.12 0.00 30.5 238.3 0
Brownfield 2S 11:59 PM 82 48 53 /44 94 / 26 12.5  (S) 9.7 28.5 mph 176° @ 0437 PM 3.8 or 0.15 0.00 29.9 215.1 0
Canadian 6E 11:59 PM 78 41 52 /35 94 / 34 10.7  (E) 7.3 38.8 mph 35° @ 0925 PM 2.8 or 0.11 0.00 26.9 215.2 0
Caprock Canyons State Park 11:59 PM 79 43 50 /38 90 / 30 9.4  (SW) 6.9 28.9 mph 195° @ 0207 PM 2.8 or 0.11 0.00 29.8 224.7 0
Childress 2NNE 11:55 PM 79 46 47 /37 84 / 33 10.2  (E) 6.9 25.1 mph 137° @ 0140 PM 3 or 0.12 0.00 28.6 217.6 0
Clarendon 2WSW 11:55 PM 76 42 49 /38 87 / 39 11.1  (E) 8.1 25.8 mph 163° @ 0125 PM 2.8 or 0.11 0.00 29.7 227.7 0
Claude 12SW 11:59 PM 78 43 50 /35 100 / 35 11.8  (SE) 8.1 28.9 mph 173° @ 0122 PM 3 or 0.12 0.00 27.4 209.9 0
Clyde 2WNW 11:59 PM 77 50 51 /43 90 / 34 7.3  (E) 4.7 17.1 mph 134° @ 1140 PM 2.8 or 0.11 0.00 28.9 204.8 0
Colorado City 5NW 11:59 PM 82 49 53 /47 95 / 32 8.6  (E) 5.5 20.8 mph 161° @ 0547 PM 3.3 or 0.13 0.00 28.7 203.6 0
Comanche Springs 11:59 PM 78 39 49 /38 98 / 34 6.4  (SE) 4.9 24.1 mph 173° @ 0323 PM 2.3 or 0.09 0.00 30.4 227.8 0
Coyanosa 2N 11:59 PM 91 49 49 /36 74 / 15 11  (SE) 7.5 25 mph 94° @ 0633 PM 4.6 or 0.18 0.00 29.7 201.9 0
Crane 1NNW 11:59 PM 87 52 51 /41 85 / 21 9.7  (E) 8 21.7 mph 153° @ 1152 AM 4.1 or 0.16 0.00 30.5 208 0
Crowell 1E 11:59 PM 77 47 52 /42 96 / 37 7  (E) 5.3 19.6 mph 158° @ 0249 PM 2.3 or 0.09 0.00 29.4 220.7 0
Dell City 11:59 PM 87 46 56 /27 78 / 12 4.5  (SE) 1.5 15.6 mph 165° @ 1259 AM 2.5 or 0.1 0.00 27.2 187.5 0
Denver City 7WNW 11:55 PM 84 47 49 /38 91 / 20 11.2  (SE) 7.8 28.1 mph 159° @ 0125 PM 3.8 or 0.15 0.00 30.8 219.4 0
Dimmitt 2NE 11:55 PM 83 43 47 /39 87 / 23 14.5  (SE) 11.4 36.9 mph 190° @ 0220 PM 4.1 or 0.16 0.00 28.7 216.1 0
Doole 3WNW 11:59 PM 80 47 53 /40 96 / 24 5.3  (N) 4.1 17 mph 99° @ 0145 PM 2.8 or 0.11 0.00 30.5 209.7 0
Dora NM 2SW 11:55 PM 85 46 46 /29 89 / 14 13.8  (S) 10.3 30 mph 187° @ 1125 AM 4.6 or 0.18 0.00 27.6 202.1 0
Dozier 3W 11:59 PM 79 44 52 /36 84 / 34 8.1  (NE) 5 26.6 mph 41° @ 1151 PM 2.5 or 0.1 0.00 28.7 223 0
Earth 9WSW 11:59 PM 86 43 48 /38 95 / 19 13.3  (SE) 10 30.5 mph 188° @ 0111 PM 4.3 or 0.17 0.00 30 222.4 0
Endee NM 2SW 11:59 PM 84 44 46 /35 88 / 18 10.7  (SE) 7.9 41.4 mph 28° @ 1019 PM 3.6 or 0.14 0.00 28.5 218.6 0
Estelline 3SSE 11:59 PM 80 43 48 /35 85 / 31 9  (E) 6.3 23.8 mph 140° @ 0242 PM 2.8 or 0.11 0.00 29.5 224.9 0
Floydada 2NNE 11:55 PM 79 45 50 /40 94 / 33 12.1  (E) 8.8 30.7 mph 158° @ 0125 PM 3.3 or 0.13 0.00 29.5 218.3 0
Fluvanna 3WNW 11:55 PM 79 50 51 /45 90 / 37 10.4  (E) 8 22.9 mph 170° @ 0500 PM 3.3 or 0.13 0.00 28.6 204.6 0
Fort Chadbourne 11:59 PM 77 47 54 /47 100 / 37 5.7  (N) 3.9 20.5 mph 177° @ 0327 PM 2.5 or 0.1 0.00 27.6 193.3 0
Fort Lancaster 11:59 PM 87 51 55 /41 100 / 20 6  (NE) 3.9 20.2 mph 173° @ 0142 PM 3.3 or 0.13 0.00 29 194.3 0
Fort Lewis CO 11:59 PM 70 30 28 /13 70 / 12 10.5  (NW) 8.4 32.7 mph 288° @ 1243 PM 2 or 0.08 0.00 31.3 252.6 2
Fort McKavett 11:59 PM 83 45 55 /45 100 / 29 4.5  (E) 1.8 22.1 mph 58° @ 0348 PM 2.8 or 0.11 0.00 29.5 198.2 0
Friona 2NE 11:55 PM 86 43 46 /28 90 / 12 12.3  (SE) 9.4 29.5 mph 210° @ 0350 PM 4.1 or 0.16 0.00 30.1 226.8 0
Fritch 1WNW 11:59 PM 82 48 50 /33 68 / 26 12.4  (SE) 9.9 36.7 mph 67° @ 1100 PM 3.6 or 0.14 0.00 26.1 205.5 0
Gail 2ESE 11:59 PM 82 47 52 /45 97 / 28 7.6  (S) 5 25.2 mph 166° @ 0447 PM 3 or 0.12 0.00 29.7 211.8 0
Goodlett 3W 11:55 PM 78 44 49 /40 91 / 34 8.4  (E) 6.2 21.8 mph 151° @ 0300 PM 2.5 or 0.1 0.00 29.7 225.2 0
Goodnight 11:59 PM 78 42 51 /36 87 / 36 11.6  (E) 8.3 28.7 mph 165° @ 0129 PM 3 or 0.12 0.00 26.9 207 0
Graham 5SSW 11:59 PM 80 53 51 /45 84 / 31 10.7  (SE) 8.2 28.5 mph 149° @ 0228 PM 3.6 or 0.14 0.00 30.3 217.8 0
Guadalupe Mtns Natl Park 11:59 PM 81 47 36 /21 60 / 11 7.4  (N) 5.2 23 mph 193° @ 0111 PM 2.8 or 0.11 0.00 31.1 210.7 0
Guthrie 10WSW 11:59 PM 80 45 49 /42 95 / 33 8.8  (SE) 6.2 25.2 mph 149° @ 0243 PM 2.8 or 0.11 0.00 30 220.9 0
Hackberry 2SSE 11:59 PM 79 47 50 /43 95 / 33 9.3  (E) 7 23.4 mph 157° @ 0401 PM 3 or 0.12 0.00 30.5 228 0
Happy 1E 11:59 PM 81 41 49 /38 91 / 30 12.8  (SE) 9.5 30.8 mph 188° @ 1256 PM 3.6 or 0.14 0.00 30.5 231.2 0
Hart 3N 11:55 PM 81 43 49 /41 92 / 28 11  (SE) 7 27.8 mph 176° @ 1230 PM 3.3 or 0.13 0.00 29.4 219.9 0
Haskell 1NW 11:55 PM 77 48 51 /46 96 / 37 7.2  (E) 5.5 18.3 mph 129° @ 1035 PM 2.5 or 0.1 0.00 27.9 203.7 0
Hefner 1SW 11:59 PM 77 50 54 /44 95 / 36 7.9  (SE) 4.8 20.5 mph 133° @ 0434 PM 2.5 or 0.1 0.00 29 214.2 0
Hereford 2NW 11:55 PM 86 47 47 /32 81 / 15 10.5  (SE) 8.5 25.9 mph 198° @ 0245 PM 3.6 or 0.14 0.00 29.1 220.8 0
Hobbs NM 5NW 11:59 PM 84 49 46 /29 82 / 14 10.9  (SE) 9.2 25.8 mph 183° @ 0430 PM 3.8 or 0.15 0.00 29.8 211.1 0
Jayton 1SSE 11:55 PM 79 49 52 /46 95 / 39 9.5  (SE) 6.7 22.9 mph 142° @ 0615 PM 3 or 0.12 0.00 29.3 213.4 0
Junction 1SSW 11:59 PM 81 44 55 /44 100 / 29 4  (N) 3 15.6 mph 22° @ 1107 AM 2.5 or 0.1 0.00 25.8 172.4 0
Kent 9E 11:59 PM 88 51 42 /31 52 / 13 7  (SE) 4.9 20 mph 83° @ 0859 PM 3.3 or 0.13 0.00 30.4 203.1 0
Knox City 3NW 11:59 PM 78 47 52 /46 98 / 34 7.4  (SE) 4.7 21.9 mph 159° @ 0503 PM 2.5 or 0.1 0.00 30.4 223.9 0
Lake Alan Henry 1NW 11:59 PM 80 48 53 /46 96 / 33 6.7  (E) 3.9 21.3 mph 131° @ 0239 PM 2.8 or 0.11 0.00 29.1 210.5 0
Lake McClellan 2NW 11:59 PM 76 45 50 /33 84 / 39 12.7  (NE) 9.9 29.1 mph 43° @ 1137 PM 3 or 0.12 0.01 27.7 214.4 0
Lamesa 2SE 11:55 PM 82 49 52 /41 90 / 25 9.4  (SE) 5.5 23.8 mph 141° @ 1255 PM 3.3 or 0.13 0.00 30 212.7 0
Lesley 2S 11:59 PM 81 47 50 /38 83 / 33 11.5  (SE) 8.3 28.1 mph 154° @ 0127 PM 3.3 or 0.13 0.00 29.2 223.4 0
Levelland 4S 11:59 PM 83 46 49 /41 89 / 24 13.5  (SE) 10.8 42.7 mph 173° @ 0536 PM 4.1 or 0.16 0.00 29.4 214 0
Lomax 1SSE 11:59 PM 85 51 51 /37 91 / 18 9.6  (SE) 7.3 24.6 mph 139° @ 0406 PM 3.8 or 0.15 0.00 29.5 206.4 0
Lubbock 3WNW TTU 11:55 PM 83 48 48 /39 82 / 28 10.4  (SE) 5.6 26.7 mph 171° @ 0245 PM 3.6 or 0.14 0.00 29.6 216 0
McAdoo 3NNW 11:59 PM 79 47 50 /36 91 / 33 12.6  (E) 9.4 29.6 mph 190° @ 0438 PM 3.6 or 0.14 0.00 29.8 219 0
McCamey 1SSW 11:59 PM 87 54 52 /42 78 / 22 9.1  (NE) 7.8 23.3 mph 132° @ 0110 PM 3.8 or 0.15 0.00 29.6 200.3 0
McLean 1E 11:55 PM 75 44 49 /34 82 / 38 11.4  (NE) 9 29.7 mph 49° @ 1140 PM 2.8 or 0.11 0.00 29.5 228.9 0
Memphis 1NE 11:59 PM 79 44 48 /38 87 / 32 7.5  (N) 5.3 25.2 mph 135° @ 0200 PM 2.5 or 0.1 0.00 29.7 227.6 0
Menard 2NW 11:59 PM 80 46 54 /38 100 / 25 3.9  (N) 3.1 20.2 mph 48° @ 1058 AM 2.5 or 0.1 0.00 27.6 186.6 0
Mertzon 3NNE 11:59 PM 84 43 53 /43 100 / 26 4  (S) 2.6 17.8 mph 126° @ 0155 PM 2.5 or 0.1 0.00 27.9 190.2 0
Morton 1ENE 11:55 PM 85 46 47 /37 90 / 19 12.7  (S) 9 29 mph 190° @ 0145 PM 4.1 or 0.16 0.00 29.1 212.5 0
Muleshoe 2SSW 11:55 PM 86 44 49 /27 96 / 12 10.7  (SE) 7.6 26.8 mph 167° @ 1205 PM 3.8 or 0.15 0.00 31.6 234.3 0
New Home 11:59 PM 82 45 50 /42 95 / 28 10.1  (SE) 6.5 27.6 mph 179° @ 0121 PM 3.3 or 0.13 0.00 29.4 212.4 0
Northfield 1S 11:55 PM 80 47 47 /34 89 / 30 9.9  (E) 6.8 24.8 mph 149° @ 0230 PM 3 or 0.12 0.00 28.7 216.9 0
O'Donnell 1N 11:59 PM 81 50 52 /42 88 / 26 10.1  (SE) 7.5 27.4 mph 146° @ 1201 PM 3.3 or 0.13 0.00 30.5 218.6 0
Odell 4ENE 11:59 PM 76 41 49 /39 92 / 33 7.8  (E) 5.5 21.1 mph 172° @ 0235 PM 2.3 or 0.09 0.00 29.1 221.6 0
Olton 6S 11:55 PM 82 42 47 /39 91 / 28 13.8  (SE) 10.6 33.8 mph 183° @ 0540 PM 3.8 or 0.15 0.00 29.1 215.7 0
Paducah 10SW 11:59 PM 79 47 50 /37 92 / 34 8.8  (E) 5.4 25.2 mph 162° @ 0411 PM 2.8 or 0.11 0.00 30.1 223.9 0
Palo Duro 4E (JA Ranch) 11:59 PM 81 41 52 /36 95 / 34 9.4  (N) 7.7 28.1 mph 126° @ 0714 PM 3 or 0.12 0.00 26.9 206 0
Palo Duro Canyon SP Floor 11:59 PM 85 47 50 /38 80 / 27 8  (SE) 3.5 26.8 mph 135° @ 1232 PM 2.8 or 0.11 0.00 26.6 204.2 0
Palo Duro Canyon State Park Rim 11:59 PM 82 46 49 /35 74 / 27 9.2  (SE) 5.1 27.4 mph 166° @ 0204 PM 3 or 0.12 0.00 26.1 200.1 0
Palo Duro Reservoir 1NW 11:59 PM 78 44 54 /33 87 / 34 11.9  (E) 8.7 39.2 mph 15° @ 0802 PM 3 or 0.12 0.00 24.4 197.1 0
Pampa 2E 11:55 PM 75 42 51 /35 87 / 42 13.5  (SE) 10.1 33.2 mph 160° @ 0120 PM 3 or 0.12 0.12 27.4 214.4 0
Panhandle 1SSW 11:59 PM 77 43 52 /37 84 / 37 14.2  (E) 11.4 30.3 mph 171° @ 1222 PM 3.3 or 0.13 0.00 27.5 213.4 0
Plains 3N 11:55 PM 84 50 49 /36 86 / 19 13  (SE) 10.3 28.1 mph 156° @ 1210 PM 4.3 or 0.17 0.00 30.5 219.4 0
Plainview 1S 11:59 PM 81 45 49 /39 86 / 28 10.3  (SE) 7.6 31.8 mph 200° @ 0345 PM 3.3 or 0.13 0.00 30.1 224 0
Post 1NE 11:59 PM 82 47 51 /42 88 / 29 7.5  (S) 4.7 28.5 mph 155° @ 0141 PM 3 or 0.12 0.00 29.8 215.4 0
Ralls 1SE 11:59 PM 79 44 49 /34 92 / 31 12  (E) 7.8 35.1 mph 177° @ 0456 PM 3.6 or 0.14 0.00 29.6 217.1 0
Reese Center 11:59 PM 82 47 49 /37 83 / 26 13.9  (S) 10.2 32.9 mph 183° @ 0246 PM 4.1 or 0.16 0.00 29.9 218.2 0
Roaring Springs 3N 11:59 PM 79 47 49 /35 88 / 33 9.9  (S) 7.3 28.5 mph 140° @ 0134 PM 3 or 0.12 0.00 30 223.1 0
Romero 11SSW 11:59 PM 80 44 46 /36 89 / 20 10.2  (SE) 7.3 39.6 mph 34° @ 0944 PM 3 or 0.12 0.00 28.9 225.2 0
Rotan 5W 11:59 PM 79 51 56 /49 95 / 37 8.1  (SE) 5.5 19.4 mph 127° @ 0234 PM 3 or 0.12 0.00 35.3 253.6 0
San Angelo 7NW 11:55 PM 82 47 51 /45 96 / 29 6.2  (NE) 4.3 24.3 mph 111° @ 0215 PM 2.8 or 0.11 0.00 28.1 193.6 0
Seagraves 1SW 11:59 PM 85 49 50 /39 89 / 21 10.8  (SE) 7.6 29.6 mph 162° @ 0131 PM 3.8 or 0.15 0.00 30.4 216.5 0
Segovia 7SSW 11:59 PM 82 53 52 /42 88 / 26 5.3  (N) 3.3 14.3 mph 50° @ 0134 PM 3 or 0.12 0.00 29.7 196.7 0
Seminole 2NNE 11:55 PM 84 49 49 /39 88 / 22 11.1  (SE) 7.9 29.6 mph 171° @ 0635 PM 3.8 or 0.15 0.00 29.8 211.4 0
Seymour 3NW 11:55 PM 77 47 55 /43 96 / 37 6.1  (E) 4.5 17.7 mph 125° @ 1045 AM 2.3 or 0.09 0.00 26.1 193.5 0
Sierra Blanca 1SSE 11:59 PM 88 54 38 /26 50 / 12 4.8  (SE) 3.7 19.9 mph 186° @ 0526 PM 2.5 or 0.1 0.00 27.4 182.5 0
Silverton 7ESE 11:55 PM 79 42 49 /37 91 / 33 12.2  (E) 8.8 33.7 mph 166° @ 0155 PM 3.3 or 0.13 0.00 28 210.9 0
Slaton 2NE 11:59 PM 80 45 49 /39 85 / 29 11.8  (SE) 8.6 31.8 mph 163° @ 1236 PM 3.6 or 0.14 0.00 30.6 222.8 0
Smyer 11:59 PM 82 46 49 /39 87 / 27 11.3  (SE) 9.7 27.6 mph 187° @ 0319 PM 3.6 or 0.14 0.00 30.7 224 0
Snyder 3E 11:55 PM 81 51 52 /47 92 / 32 9.5  (E) 3.6 22.9 mph 136° @ 0350 PM 3.3 or 0.13 0.00 27.1 193.3 0
Snyder 3SSW 11:59 PM 80 50 55 /48 100 / 34 8.1  (E) 5.9 22.7 mph 153° @ 0206 PM 3 or 0.12 0.00 28.8 205.4 0
South Plains 3ENE 11:59 PM 80 41 50 /38 96 / 32 10.7  (E) 7.7 28.1 mph 162° @ 0159 PM 3 or 0.12 0.00 28.7 214.1 0
Spur 1W 11:55 PM 80 47 50 /43 92 / 35 7.3  (E) 5.4 22.9 mph 164° @ 0155 PM 2.8 or 0.11 0.00 29.6 217 0
St. Lawrence 5SW 11:59 PM 84 49 51 /39 92 / 21 10.1  (E) 7.7 24.1 mph 152° @ 0335 PM 3.8 or 0.15 0.00 31.1 214 0
Stamford 5ESE 11:59 PM 78 50 58 /47 98 / 36 6.8  (SE) 5.6 18.1 mph 146° @ 0445 PM 2.5 or 0.1 0.00 28.9 209 0
Sterling City 4WSW 11:59 PM 83 44 53 /44 100 / 27 6.3  (N) 4.7 19.2 mph 118° @ 0321 PM 2.8 or 0.11 0.00 23.9 165.4 0
Stinnett 1NNW 11:59 PM 81 45 51 /33 71 / 27 11.3  (SE) 8.2 30.6 mph 202° @ 1151 AM 3.3 or 0.13 0.00 26.2 207.4 0
Stratford 4WNW 11:59 PM 78 41 47 /36 84 / 26 10.9  (SE) 7.6 37 mph 21° @ 0739 PM 2.8 or 0.11 0.00 30.1 241.7 0
Sundown 8WSW 11:55 PM 85 45 47 /39 92 / 21 13.1  (S) 8.5 36.9 mph 179° @ 0250 PM 4.3 or 0.17 0.00 26.9 194.1 0
Sweetwater 11SW 11:59 PM 77 50 52 /44 89 / 36 9.2  (E) 6.9 22.7 mph 141° @ 1149 PM 3 or 0.12 0.00 31.3 220.2 0
Tahoka 3NNE 11:59 PM 82 48 51 /44 87 / 27 10.4  (S) 6.9 25.4 mph 164° @ 0202 PM 3.6 or 0.14 0.00 29.5 212.5 0
Tarzan 2WNW 11:59 PM 84 51 51 /38 95 / 20 9.8  (SE) 5.4 27.2 mph 148° @ 0500 PM 3.6 or 0.14 0.00 28.4 199.2 0
Tatum NM 2SW 11:55 PM 87 47 48 /34 89 / 17 13  (SE) 7.3 28.4 mph 171° @ 1125 AM 4.6 or 0.18 0.00 29.8 213.7 0
Throckmorton 1SW 11:59 PM 77 47 53 /45 100 / 34 4.7  (SE) 2 15.5 mph 141° @ 0541 PM 2.3 or 0.09 0.00 29.8 217.9 0
Truscott 2SE 11:59 PM 77 47 52 /43 96 / 36 7.3  (SE) 4.6 18.9 mph 139° @ 0407 PM 2.5 or 0.1 0.00 29.1 216.8 0
Tulia 2ENE 11:55 PM 80 43 49 /39 88 / 31 12.2  (SE) 9.2 30.8 mph 180° @ 0225 PM 3.3 or 0.13 0.00 25.7 193.8 0
Turkey 2WSW 11:55 PM 79 47 50 /38 89 / 36 10.3  (E) 8.2 26.6 mph 150° @ 1220 PM 3 or 0.12 0.00 25.9 195.9 0
Umbarger 3NNE 11:59 PM 83 43 48 /37 84 / 26 14.3  (SE) 11.2 30 mph 179° @ 1146 AM 4.1 or 0.16 0.00 28.1 215 0
Van Horn 3ENE 11:59 PM 90 50 41 /23 56 / 11 5.4  (NE) 3.4 15.9 mph 219° @ 0423 PM 2.8 or 0.11 0.00 31 207 0
Vega 4E 11:59 PM 83 44 48 /29 77 / 15 12.2  (SE) 9.6 29.6 mph 192° @ 1242 PM 3.8 or 0.15 0.00 30.2 232.8 0
Vigo Park 11:59 PM 81 42 50 /37 87 / 29 12.7  (SE) 8.4 30.8 mph 207° @ 0348 PM 3.6 or 0.14 0.00 26.4 199.6 0
Wall 2E 11:59 PM 82 48 53 /46 98 / 29 6.2  (E) 4.8 17.5 mph 93° @ 0111 PM 3 or 0.12 0.00 29.3 201.2 0
Weinert 2NNE 11:59 PM 76 49 53 /45 90 / 36 6.9  (SE) 4.9 19.2 mph 148° @ 0456 PM 2.5 or 0.1 0.00 26.7 196 0
Welch 11:59 PM 83 47 54 /43 100 / 25 11.2  (S) 8.5 31.4 mph 165° @ 0148 PM 3.8 or 0.15 0.00 29.7 212.1 0
Wellington 6SE 11:59 PM 78 45 48 /32 77 / 28 9.7  (E) 7.3 26.3 mph 131° @ 0759 PM 2.8 or 0.11 0.00 30.3 232.9 0
White River Lake 6NW 11:59 PM 80 48 51 /39 91 / 32 9.7  (NE) 7 28.5 mph 153° @ 0250 PM 3 or 0.12 0.00 30.8 225.3 0
Wolfforth 6SSW 11:59 PM 82 45 50 /41 91 / 26 12.2  (S) 9.6 30.7 mph 196° @ 0334 PM 3.8 or 0.15 0.00 29.8 216.4 0

WestTexas Mesonet Home    Site Map/Menu  National Weather Service Lubbock   Soil Data   Latest Observation Page   Previous  Date   Next Last